sensor_id;sensor_type;location;lat;lon;timestamp;temperature;humidity
70820;DHT22;58439;51.046;13.692;2022-10-31T00:00:15;10.40;99.90
70820;DHT22;58439;51.046;13.692;2022-10-31T00:06:43;10.30;99.90
70820;DHT22;58439;51.046;13.692;2022-10-31T00:09:22;10.30;99.90
70820;DHT22;58439;51.046;13.692;2022-10-31T00:12:09;10.30;99.90
70820;DHT22;58439;51.046;13.692;2022-10-31T00:14:39;10.30;99.90
70820;DHT22;58439;51.046;13.692;2022-10-31T00:17:10;10.30;99.90
70820;DHT22;58439;51.046;13.692;2022-10-31T00:19:37;10.30;99.90
70820;DHT22;58439;51.046;13.692;2022-10-31T00:22:04;10.30;99.90
70820;DHT22;58439;51.046;13.692;2022-10-31T00:24:54;10.30;99.90
70820;DHT22;58439;51.046;13.692;2022-10-31T00:27:21;10.30;99.90
70820;DHT22;58439;51.046;13.692;2022-10-31T00:29:51;10.30;99.90
70820;DHT22;58439;51.046;13.692;2022-10-31T00:32:18;10.30;99.90
70820;DHT22;58439;51.046;13.692;2022-10-31T00:34:46;10.20;99.90
70820;DHT22;58439;51.046;13.692;2022-10-31T00:37:13;10.20;99.90
70820;DHT22;58439;51.046;13.692;2022-10-31T00:39:43;10.20;99.90
70820;DHT22;58439;51.046;13.692;2022-10-31T00:42:12;10.10;99.90
70820;DHT22;58439;51.046;13.692;2022-10-31T00:44:44;10.10;99.90
70820;DHT22;58439;51.046;13.692;2022-10-31T00:47:17;10.10;99.90
70820;DHT22;58439;51.046;13.692;2022-10-31T00:49:49;10.10;99.90
70820;DHT22;58439;51.046;13.692;2022-10-31T00:52:19;10.10;99.90
70820;DHT22;58439;51.046;13.692;2022-10-31T00:54:47;10.10;99.90
70820;DHT22;58439;51.046;13.692;2022-10-31T00:57:15;10.10;99.90
70820;DHT22;58439;51.046;13.692;2022-10-31T00:59:43;10.00;99.90
70820;DHT22;58439;51.046;13.692;2022-10-31T01:05:15;10.00;99.90
70820;DHT22;58439;51.046;13.692;2022-10-31T01:08:36;10.00;99.90
70820;DHT22;58439;51.046;13.692;2022-10-31T01:14:43;9.90;99.90
70820;DHT22;58439;51.046;13.692;2022-10-31T01:17:17;9.90;99.90
70820;DHT22;58439;51.046;13.692;2022-10-31T01:19:46;9.90;99.90
70820;DHT22;58439;51.046;13.692;2022-10-31T01:22:13;9.90;99.90
70820;DHT22;58439;51.046;13.692;2022-10-31T01:24:40;9.90;99.90
70820;DHT22;58439;51.046;13.692;2022-10-31T01:27:08;9.80;99.90
70820;DHT22;58439;51.046;13.692;2022-10-31T01:30:10;9.80;99.90
70820;DHT22;58439;51.046;13.692;2022-10-31T01:32:41;9.80;99.90
70820;DHT22;58439;51.046;13.692;2022-10-31T01:35:08;9.80;99.90
70820;DHT22;58439;51.046;13.692;2022-10-31T01:37:35;9.80;99.90
70820;DHT22;58439;51.046;13.692;2022-10-31T01:40:02;9.70;99.90
70820;DHT22;58439;51.046;13.692;2022-10-31T01:42:34;9.70;99.90
70820;DHT22;58439;51.046;13.692;2022-10-31T01:45:03;9.70;99.90
70820;DHT22;58439;51.046;13.692;2022-10-31T01:47:42;9.70;99.90
70820;DHT22;58439;51.046;13.692;2022-10-31T01:50:23;9.70;99.90
70820;DHT22;58439;51.046;13.692;2022-10-31T01:52:59;9.60;99.90
70820;DHT22;58439;51.046;13.692;2022-10-31T01:55:50;9.60;99.90
70820;DHT22;58439;51.046;13.692;2022-10-31T01:58:25;9.50;99.90
70820;DHT22;58439;51.046;13.692;2022-10-31T02:00:59;9.50;99.90
70820;DHT22;58439;51.046;13.692;2022-10-31T02:03:34;9.50;99.90
70820;DHT22;58439;51.046;13.692;2022-10-31T02:06:37;9.50;99.90
70820;DHT22;58439;51.046;13.692;2022-10-31T02:09:12;9.50;99.90
70820;DHT22;58439;51.046;13.692;2022-10-31T02:12:20;9.50;99.90
70820;DHT22;58439;51.046;13.692;2022-10-31T02:18:22;9.40;99.90
70820;DHT22;58439;51.046;13.692;2022-10-31T02:21:15;9.50;99.90
70820;DHT22;58439;51.046;13.692;2022-10-31T02:27:17;9.50;99.90
70820;DHT22;58439;51.046;13.692;2022-10-31T02:39:24;9.40;99.90
70820;DHT22;58439;51.046;13.692;2022-10-31T02:47:40;9.30;99.90
70820;DHT22;58439;51.046;13.692;2022-10-31T02:50:30;9.30;99.90
70820;DHT22;58439;51.046;13.692;2022-10-31T02:53:02;9.30;99.90
70820;DHT22;58439;51.046;13.692;2022-10-31T03:18:37;9.20;99.90
70820;DHT22;58439;51.046;13.692;2022-10-31T03:42:04;9.10;99.90
70820;DHT22;58439;51.046;13.692;2022-10-31T03:45:13;9.10;99.90
70820;DHT22;58439;51.046;13.692;2022-10-31T03:47:57;9.00;99.90
70820;DHT22;58439;51.046;13.692;2022-10-31T03:53:34;8.90;99.90
70820;DHT22;58439;51.046;13.692;2022-10-31T03:56:21;8.90;99.90
70820;DHT22;58439;51.046;13.692;2022-10-31T03:59:09;8.90;99.90
70820;DHT22;58439;51.046;13.692;2022-10-31T04:01:49;8.90;99.90
70820;DHT22;58439;51.046;13.692;2022-10-31T04:04:19;8.90;99.90
70820;DHT22;58439;51.046;13.692;2022-10-31T04:06:50;8.80;99.90
70820;DHT22;58439;51.046;13.692;2022-10-31T04:09:23;8.80;99.90
70820;DHT22;58439;51.046;13.692;2022-10-31T04:11:56;8.80;99.90
70820;DHT22;58439;51.046;13.692;2022-10-31T04:14:57;8.80;99.90
70820;DHT22;58439;51.046;13.692;2022-10-31T04:17:28;8.70;99.90
70820;DHT22;58439;51.046;13.692;2022-10-31T04:20:00;8.80;99.90
70820;DHT22;58439;51.046;13.692;2022-10-31T04:22:28;8.80;99.90
70820;DHT22;58439;51.046;13.692;2022-10-31T04:24:56;8.90;99.90
70820;DHT22;58439;51.046;13.692;2022-10-31T04:27:23;8.80;99.90
70820;DHT22;58439;51.046;13.692;2022-10-31T04:29:51;8.80;99.90
70820;DHT22;58439;51.046;13.692;2022-10-31T04:32:19;8.80;99.90
70820;DHT22;58439;51.046;13.692;2022-10-31T04:34:46;8.70;99.90
70820;DHT22;58439;51.046;13.692;2022-10-31T04:37:13;8.70;99.90
70820;DHT22;58439;51.046;13.692;2022-10-31T04:39:40;8.70;99.90
70820;DHT22;58439;51.046;13.692;2022-10-31T04:42:29;8.70;99.90
70820;DHT22;58439;51.046;13.692;2022-10-31T04:45:01;8.70;99.90
70820;DHT22;58439;51.046;13.692;2022-10-31T04:47:32;8.70;99.90
70820;DHT22;58439;51.046;13.692;2022-10-31T04:50:01;8.60;99.90
70820;DHT22;58439;51.046;13.692;2022-10-31T04:52:31;8.60;99.90
70820;DHT22;58439;51.046;13.692;2022-10-31T04:55:07;8.60;99.90
70820;DHT22;58439;51.046;13.692;2022-10-31T04:58:02;8.60;99.90
70820;DHT22;58439;51.046;13.692;2022-10-31T05:00:33;8.60;99.90
70820;DHT22;58439;51.046;13.692;2022-10-31T05:03:01;8.60;99.90
70820;DHT22;58439;51.046;13.692;2022-10-31T05:05:30;8.60;99.90
70820;DHT22;58439;51.046;13.692;2022-10-31T05:08:00;8.60;99.90
70820;DHT22;58439;51.046;13.692;2022-10-31T05:10:30;8.60;99.90
70820;DHT22;58439;51.046;13.692;2022-10-31T05:13:01;8.60;99.90
70820;DHT22;58439;51.046;13.692;2022-10-31T05:15:49;8.60;99.90
70820;DHT22;58439;51.046;13.692;2022-10-31T05:18:16;8.60;99.90
70820;DHT22;58439;51.046;13.692;2022-10-31T05:21:03;8.60;99.90
70820;DHT22;58439;51.046;13.692;2022-10-31T05:23:35;8.50;99.90
70820;DHT22;58439;51.046;13.692;2022-10-31T05:26:04;8.50;99.90
70820;DHT22;58439;51.046;13.692;2022-10-31T05:28:33;8.60;99.90
70820;DHT22;58439;51.046;13.692;2022-10-31T05:31:03;8.60;99.90
70820;DHT22;58439;51.046;13.692;2022-10-31T05:33:31;8.60;99.90
70820;DHT22;58439;51.046;13.692;2022-10-31T05:36:16;8.60;99.90
70820;DHT22;58439;51.046;13.692;2022-10-31T05:38:57;8.60;99.90
70820;DHT22;58439;51.046;13.692;2022-10-31T05:41:28;8.50;99.90
70820;DHT22;58439;51.046;13.692;2022-10-31T05:44:05;8.50;99.90
70820;DHT22;58439;51.046;13.692;2022-10-31T05:46:46;8.40;99.90
70820;DHT22;58439;51.046;13.692;2022-10-31T05:49:32;8.40;99.90
70820;DHT22;58439;51.046;13.692;2022-10-31T05:52:02;8.40;99.90
70820;DHT22;58439;51.046;13.692;2022-10-31T05:59:49;8.40;99.90
70820;DHT22;58439;51.046;13.692;2022-10-31T06:02:23;8.40;99.90
70820;DHT22;58439;51.046;13.692;2022-10-31T06:05:19;8.30;99.90
70820;DHT22;58439;51.046;13.692;2022-10-31T06:07:47;8.40;99.90
70820;DHT22;58439;51.046;13.692;2022-10-31T06:10:14;8.40;99.90
70820;DHT22;58439;51.046;13.692;2022-10-31T06:12:42;8.40;99.90
70820;DHT22;58439;51.046;13.692;2022-10-31T06:15:15;8.50;99.90
70820;DHT22;58439;51.046;13.692;2022-10-31T06:18:01;8.50;99.90
70820;DHT22;58439;51.046;13.692;2022-10-31T06:20:41;8.50;99.90
70820;DHT22;58439;51.046;13.692;2022-10-31T06:23:09;8.50;99.90
70820;DHT22;58439;51.046;13.692;2022-10-31T06:25:37;8.60;99.90
70820;DHT22;58439;51.046;13.692;2022-10-31T06:28:05;8.60;99.90
70820;DHT22;58439;51.046;13.692;2022-10-31T06:30:52;8.60;99.90
70820;DHT22;58439;51.046;13.692;2022-10-31T06:33:20;8.60;99.90
70820;DHT22;58439;51.046;13.692;2022-10-31T06:36:00;8.70;99.90
70820;DHT22;58439;51.046;13.692;2022-10-31T06:38:31;8.70;99.90
70820;DHT22;58439;51.046;13.692;2022-10-31T06:41:02;8.70;99.90
70820;DHT22;58439;51.046;13.692;2022-10-31T06:43:56;8.80;99.90
70820;DHT22;58439;51.046;13.692;2022-10-31T06:46:47;8.90;99.90
70820;DHT22;58439;51.046;13.692;2022-10-31T06:49:34;9.00;99.90
70820;DHT22;58439;51.046;13.692;2022-10-31T06:52:04;9.10;99.90
70820;DHT22;58439;51.046;13.692;2022-10-31T06:54:32;9.10;99.90
70820;DHT22;58439;51.046;13.692;2022-10-31T06:57:00;9.10;99.90
70820;DHT22;58439;51.046;13.692;2022-10-31T06:59:28;9.20;99.90
70820;DHT22;58439;51.046;13.692;2022-10-31T07:02:36;9.20;99.90
70820;DHT22;58439;51.046;13.692;2022-10-31T07:05:05;9.40;99.90
70820;DHT22;58439;51.046;13.692;2022-10-31T07:07:32;9.40;99.90
70820;DHT22;58439;51.046;13.692;2022-10-31T07:10:00;9.50;99.90
70820;DHT22;58439;51.046;13.692;2022-10-31T07:12:44;9.60;99.90
70820;DHT22;58439;51.046;13.692;2022-10-31T07:15:12;9.60;99.90
70820;DHT22;58439;51.046;13.692;2022-10-31T07:17:40;9.70;99.90
70820;DHT22;58439;51.046;13.692;2022-10-31T07:20:08;9.80;99.90
70820;DHT22;58439;51.046;13.692;2022-10-31T07:22:51;9.90;99.90
70820;DHT22;58439;51.046;13.692;2022-10-31T07:25:56;10.00;99.90
70820;DHT22;58439;51.046;13.692;2022-10-31T07:28:31;10.10;99.90
70820;DHT22;58439;51.046;13.692;2022-10-31T07:30:59;10.20;99.90
70820;DHT22;58439;51.046;13.692;2022-10-31T07:33:27;10.30;99.90
70820;DHT22;58439;51.046;13.692;2022-10-31T07:36:13;10.40;99.90
70820;DHT22;58439;51.046;13.692;2022-10-31T07:38:43;10.50;99.90
70820;DHT22;58439;51.046;13.692;2022-10-31T07:41:11;10.60;99.90
70820;DHT22;58439;51.046;13.692;2022-10-31T07:43:42;10.70;99.90
70820;DHT22;58439;51.046;13.692;2022-10-31T07:46:15;10.80;99.90
70820;DHT22;58439;51.046;13.692;2022-10-31T07:49:09;10.90;99.90
70820;DHT22;58439;51.046;13.692;2022-10-31T07:51:56;11.00;99.90
70820;DHT22;58439;51.046;13.692;2022-10-31T07:54:27;11.10;99.90
70820;DHT22;58439;51.046;13.692;2022-10-31T07:56:55;11.20;99.90
70820;DHT22;58439;51.046;13.692;2022-10-31T07:59:22;11.30;99.90
70820;DHT22;58439;51.046;13.692;2022-10-31T08:01:50;11.40;99.90
70820;DHT22;58439;51.046;13.692;2022-10-31T08:04:46;11.60;99.90
70820;DHT22;58439;51.046;13.692;2022-10-31T08:07:39;11.70;99.90
70820;DHT22;58439;51.046;13.692;2022-10-31T08:10:13;11.80;99.90
70820;DHT22;58439;51.046;13.692;2022-10-31T08:12:40;11.90;99.90
70820;DHT22;58439;51.046;13.692;2022-10-31T08:15:08;12.00;99.90
70820;DHT22;58439;51.046;13.692;2022-10-31T08:17:38;12.10;99.90
70820;DHT22;58439;51.046;13.692;2022-10-31T08:20:07;12.20;99.30
70820;DHT22;58439;51.046;13.692;2022-10-31T08:22:42;12.30;99.00
70820;DHT22;58439;51.046;13.692;2022-10-31T08:25:10;12.40;98.70
70820;DHT22;58439;51.046;13.692;2022-10-31T08:27:38;12.50;98.10
70820;DHT22;58439;51.046;13.692;2022-10-31T08:30:10;12.60;97.50
70820;DHT22;58439;51.046;13.692;2022-10-31T08:32:44;12.60;97.00
70820;DHT22;58439;51.046;13.692;2022-10-31T08:35:41;12.80;96.70
70820;DHT22;58439;51.046;13.692;2022-10-31T08:38:29;12.90;96.40
70820;DHT22;58439;51.046;13.692;2022-10-31T08:40:57;13.00;96.40
70820;DHT22;58439;51.046;13.692;2022-10-31T08:43:25;13.10;96.00
70820;DHT22;58439;51.046;13.692;2022-10-31T08:45:54;13.20;95.60
70820;DHT22;58439;51.046;13.692;2022-10-31T08:48:28;13.20;94.60
70820;DHT22;58439;51.046;13.692;2022-10-31T08:50:57;13.30;94.80
70820;DHT22;58439;51.046;13.692;2022-10-31T08:53:26;13.40;94.50
70820;DHT22;58439;51.046;13.692;2022-10-31T08:56:12;13.50;94.10
70820;DHT22;58439;51.046;13.692;2022-10-31T08:58:40;13.60;93.60
70820;DHT22;58439;51.046;13.692;2022-10-31T09:01:39;13.60;92.70
70820;DHT22;58439;51.046;13.692;2022-10-31T09:04:06;13.80;93.10
70820;DHT22;58439;51.046;13.692;2022-10-31T09:06:35;13.90;92.60
70820;DHT22;58439;51.046;13.692;2022-10-31T09:09:04;13.90;91.70
70820;DHT22;58439;51.046;13.692;2022-10-31T09:11:31;14.00;91.90
70820;DHT22;58439;51.046;13.692;2022-10-31T09:14:10;14.10;91.90
70820;DHT22;58439;51.046;13.692;2022-10-31T09:17:00;14.20;91.40
70820;DHT22;58439;51.046;13.692;2022-10-31T09:19:48;14.30;90.60
70820;DHT22;58439;51.046;13.692;2022-10-31T09:22:23;14.50;90.60
70820;DHT22;58439;51.046;13.692;2022-10-31T09:24:59;14.60;89.50
70820;DHT22;58439;51.046;13.692;2022-10-31T09:27:27;14.70;90.20
70820;DHT22;58439;51.046;13.692;2022-10-31T09:29:56;14.90;88.40
70820;DHT22;58439;51.046;13.692;2022-10-31T09:32:23;15.00;87.30
70820;DHT22;58439;51.046;13.692;2022-10-31T09:35:07;15.10;86.80
70820;DHT22;58439;51.046;13.692;2022-10-31T09:37:35;15.10;85.60
70820;DHT22;58439;51.046;13.692;2022-10-31T09:40:02;15.30;84.70
70820;DHT22;58439;51.046;13.692;2022-10-31T09:48:27;15.60;83.30
70820;DHT22;58439;51.046;13.692;2022-10-31T09:51:10;15.80;82.60
70820;DHT22;58439;51.046;13.692;2022-10-31T09:54:06;16.00;82.30
70820;DHT22;58439;51.046;13.692;2022-10-31T09:56:39;16.20;81.60
70820;DHT22;58439;51.046;13.692;2022-10-31T09:59:17;16.40;80.20
70820;DHT22;58439;51.046;13.692;2022-10-31T10:04:57;16.70;79.40
70820;DHT22;58439;51.046;13.692;2022-10-31T10:07:54;16.80;79.60
70820;DHT22;58439;51.046;13.692;2022-10-31T10:13:36;18.60;72.30
70820;DHT22;58439;51.046;13.692;2022-10-31T10:16:25;19.50;67.20
70820;DHT22;58439;51.046;13.692;2022-10-31T10:25:22;21.70;58.10
70820;DHT22;58439;51.046;13.692;2022-10-31T10:28:25;22.50;54.80
70820;DHT22;58439;51.046;13.692;2022-10-31T10:31:01;23.30;51.40
70820;DHT22;58439;51.046;13.692;2022-10-31T10:37:04;23.60;48.80
70820;DHT22;58439;51.046;13.692;2022-10-31T10:39:46;24.00;47.70
70820;DHT22;58439;51.046;13.692;2022-10-31T10:42:31;24.40;46.50
70820;DHT22;58439;51.046;13.692;2022-10-31T10:45:20;24.60;44.90
70820;DHT22;58439;51.046;13.692;2022-10-31T10:51:39;25.20;42.70
70820;DHT22;58439;51.046;13.692;2022-10-31T10:54:49;25.30;41.10
70820;DHT22;58439;51.046;13.692;2022-10-31T11:00:29;25.60;40.30
70820;DHT22;58439;51.046;13.692;2022-10-31T11:07:40;25.80;39.10
70820;DHT22;58439;51.046;13.692;2022-10-31T11:21:17;26.60;36.90
70820;DHT22;58439;51.046;13.692;2022-10-31T11:41:20;27.40;34.60
70820;DHT22;58439;51.046;13.692;2022-10-31T11:53:47;28.10;33.00
70820;DHT22;58439;51.046;13.692;2022-10-31T12:02:25;27.90;32.60
70820;DHT22;58439;51.046;13.692;2022-10-31T12:08:47;28.00;32.60
70820;DHT22;58439;51.046;13.692;2022-10-31T12:12:01;28.20;32.30
70820;DHT22;58439;51.046;13.692;2022-10-31T13:02:44;29.70;29.40
70820;DHT22;58439;51.046;13.692;2022-10-31T13:09:45;28.80;29.90
70820;DHT22;58439;51.046;13.692;2022-10-31T13:12:21;28.70;30.00
70820;DHT22;58439;51.046;13.692;2022-10-31T13:14:58;28.70;30.00
70820;DHT22;58439;51.046;13.692;2022-10-31T13:17:40;28.70;30.00
70820;DHT22;58439;51.046;13.692;2022-10-31T13:20:22;28.90;29.90
70820;DHT22;58439;51.046;13.692;2022-10-31T13:23:08;29.20;29.40
70820;DHT22;58439;51.046;13.692;2022-10-31T13:26:10;29.40;29.30
70820;DHT22;58439;51.046;13.692;2022-10-31T13:28:47;29.50;29.10
70820;DHT22;58439;51.046;13.692;2022-10-31T13:31:22;29.50;29.00
70820;DHT22;58439;51.046;13.692;2022-10-31T13:33:58;29.40;28.80
70820;DHT22;58439;51.046;13.692;2022-10-31T13:46:25;29.50;29.00
70820;DHT22;58439;51.046;13.692;2022-10-31T13:54:49;29.40;29.00
70820;DHT22;58439;51.046;13.692;2022-10-31T13:57:59;29.10;28.90
70820;DHT22;58439;51.046;13.692;2022-10-31T14:00:28;28.70;29.40
70820;DHT22;58439;51.046;13.692;2022-10-31T14:03:01;28.50;29.60
70820;DHT22;58439;51.046;13.692;2022-10-31T14:05:56;28.40;29.70
70820;DHT22;58439;51.046;13.692;2022-10-31T14:08:31;28.30;29.90
70820;DHT22;58439;51.046;13.692;2022-10-31T14:11:08;28.10;31.20
70820;DHT22;58439;51.046;13.692;2022-10-31T14:15:52;27.80;30.50
70820;DHT22;58439;51.046;13.692;2022-10-31T15:11:36;19.30;63.40
70820;DHT22;58439;51.046;13.692;2022-10-31T15:14:27;19.10;65.70
70820;DHT22;58439;51.046;13.692;2022-10-31T15:17:12;18.90;66.80
70820;DHT22;58439;51.046;13.692;2022-10-31T15:19:42;18.70;68.40
70820;DHT22;58439;51.046;13.692;2022-10-31T15:22:28;18.50;69.90
70820;DHT22;58439;51.046;13.692;2022-10-31T15:25:24;18.40;70.80
70820;DHT22;58439;51.046;13.692;2022-10-31T15:27:55;18.20;71.50
70820;DHT22;58439;51.046;13.692;2022-10-31T15:30:25;18.10;73.00
70820;DHT22;58439;51.046;13.692;2022-10-31T15:32:54;17.90;74.10
70820;DHT22;58439;51.046;13.692;2022-10-31T15:36:04;17.70;74.60
70820;DHT22;58439;51.046;13.692;2022-10-31T15:38:32;17.50;76.00
70820;DHT22;58439;51.046;13.692;2022-10-31T15:41:03;17.40;76.10
70820;DHT22;58439;51.046;13.692;2022-10-31T15:43:36;17.20;76.60
70820;DHT22;58439;51.046;13.692;2022-10-31T15:46:09;17.10;76.90
70820;DHT22;58439;51.046;13.692;2022-10-31T15:48:37;16.90;77.30
70820;DHT22;58439;51.046;13.692;2022-10-31T15:51:07;16.80;77.90
70820;DHT22;58439;51.046;13.692;2022-10-31T15:54:10;16.60;77.90
70820;DHT22;58439;51.046;13.692;2022-10-31T15:56:43;16.50;78.50
70820;DHT22;58439;51.046;13.692;2022-10-31T15:59:19;16.40;78.80
70820;DHT22;58439;51.046;13.692;2022-10-31T16:02:07;16.30;79.20
70820;DHT22;58439;51.046;13.692;2022-10-31T16:04:50;16.20;80.30
70820;DHT22;58439;51.046;13.692;2022-10-31T16:07:25;16.10;81.60
70820;DHT22;58439;51.046;13.692;2022-10-31T16:09:58;16.00;81.90
70820;DHT22;58439;51.046;13.692;2022-10-31T16:12:46;16.00;82.40
70820;DHT22;58439;51.046;13.692;2022-10-31T16:15:15;15.90;82.30
70820;DHT22;58439;51.046;13.692;2022-10-31T16:17:50;15.70;83.10
70820;DHT22;58439;51.046;13.692;2022-10-31T16:20:26;15.70;83.70
70820;DHT22;58439;51.046;13.692;2022-10-31T16:22:59;15.60;84.70
70820;DHT22;58439;51.046;13.692;2022-10-31T16:25:38;15.60;84.80
70820;DHT22;58439;51.046;13.692;2022-10-31T16:28:19;15.50;84.60
70820;DHT22;58439;51.046;13.692;2022-10-31T16:30:56;15.40;85.00
70820;DHT22;58439;51.046;13.692;2022-10-31T16:33:32;15.30;85.30
70820;DHT22;58439;51.046;13.692;2022-10-31T16:39:03;15.20;87.90
70820;DHT22;58439;51.046;13.692;2022-10-31T16:41:32;15.10;88.50
70820;DHT22;58439;51.046;13.692;2022-10-31T16:44:06;15.10;88.80
70820;DHT22;58439;51.046;13.692;2022-10-31T16:46:41;15.10;88.00
70820;DHT22;58439;51.046;13.692;2022-10-31T16:49:17;15.10;88.20
70820;DHT22;58439;51.046;13.692;2022-10-31T16:52:38;15.10;88.40
70820;DHT22;58439;51.046;13.692;2022-10-31T16:55:32;15.10;88.10
70820;DHT22;58439;51.046;13.692;2022-10-31T16:58:03;15.00;88.20
70820;DHT22;58439;51.046;13.692;2022-10-31T17:00:39;15.00;88.90
70820;DHT22;58439;51.046;13.692;2022-10-31T17:04:13;14.80;89.10
70820;DHT22;58439;51.046;13.692;2022-10-31T17:07:35;14.80;90.20
70820;DHT22;58439;51.046;13.692;2022-10-31T17:10:11;14.70;90.00
70820;DHT22;58439;51.046;13.692;2022-10-31T17:13:04;14.60;90.00
70820;DHT22;58439;51.046;13.692;2022-10-31T17:16:26;14.60;90.40
70820;DHT22;58439;51.046;13.692;2022-10-31T17:19:09;14.50;90.70
70820;DHT22;58439;51.046;13.692;2022-10-31T17:21:38;14.40;90.60
70820;DHT22;58439;51.046;13.692;2022-10-31T17:24:07;14.40;90.80
70820;DHT22;58439;51.046;13.692;2022-10-31T17:26:40;14.30;91.20
70820;DHT22;58439;51.046;13.692;2022-10-31T17:29:08;14.30;91.60
70820;DHT22;58439;51.046;13.692;2022-10-31T17:31:35;14.20;91.70
70820;DHT22;58439;51.046;13.692;2022-10-31T17:34:05;14.10;91.90
70820;DHT22;58439;51.046;13.692;2022-10-31T17:36:35;14.10;91.90
70820;DHT22;58439;51.046;13.692;2022-10-31T17:49:47;14.00;92.10
70820;DHT22;58439;51.046;13.692;2022-10-31T17:54:04;14.10;92.30
70820;DHT22;58439;51.046;13.692;2022-10-31T17:56:35;14.00;92.50
70820;DHT22;58439;51.046;13.692;2022-10-31T17:59:03;14.00;92.50
70820;DHT22;58439;51.046;13.692;2022-10-31T18:01:35;13.90;92.90
70820;DHT22;58439;51.046;13.692;2022-10-31T18:04:02;13.90;92.90
70820;DHT22;58439;51.046;13.692;2022-10-31T18:06:33;14.00;92.90
70820;DHT22;58439;51.046;13.692;2022-10-31T18:09:02;14.00;92.80
70820;DHT22;58439;51.046;13.692;2022-10-31T18:11:31;14.00;92.80
70820;DHT22;58439;51.046;13.692;2022-10-31T18:13:58;14.00;92.90
70820;DHT22;58439;51.046;13.692;2022-10-31T18:16:26;13.90;93.10
70820;DHT22;58439;51.046;13.692;2022-10-31T18:19:00;13.90;93.20
70820;DHT22;58439;51.046;13.692;2022-10-31T18:21:28;13.80;93.20
70820;DHT22;58439;51.046;13.692;2022-10-31T18:23:58;13.80;93.30
70820;DHT22;58439;51.046;13.692;2022-10-31T18:26:29;13.80;93.30
70820;DHT22;58439;51.046;13.692;2022-10-31T18:28:59;13.80;93.20
70820;DHT22;58439;51.046;13.692;2022-10-31T18:31:27;13.70;93.20
70820;DHT22;58439;51.046;13.692;2022-10-31T18:33:55;13.70;93.70
70820;DHT22;58439;51.046;13.692;2022-10-31T18:36:23;13.70;93.90
70820;DHT22;58439;51.046;13.692;2022-10-31T18:38:51;13.70;93.80
70820;DHT22;58439;51.046;13.692;2022-10-31T18:41:19;13.60;93.80
70820;DHT22;58439;51.046;13.692;2022-10-31T18:43:48;13.60;93.80
70820;DHT22;58439;51.046;13.692;2022-10-31T18:46:16;13.60;93.80
70820;DHT22;58439;51.046;13.692;2022-10-31T18:48:44;13.50;94.30
70820;DHT22;58439;51.046;13.692;2022-10-31T18:51:13;13.50;94.60
70820;DHT22;58439;51.046;13.692;2022-10-31T18:53:41;13.40;94.80
70820;DHT22;58439;51.046;13.692;2022-10-31T18:56:12;13.30;94.80
70820;DHT22;58439;51.046;13.692;2022-10-31T18:58:43;13.30;95.00
70820;DHT22;58439;51.046;13.692;2022-10-31T19:01:12;13.30;95.30
70820;DHT22;58439;51.046;13.692;2022-10-31T19:03:40;13.20;95.10
70820;DHT22;58439;51.046;13.692;2022-10-31T19:06:08;13.20;95.00
70820;DHT22;58439;51.046;13.692;2022-10-31T19:08:39;13.10;95.10
70820;DHT22;58439;51.046;13.692;2022-10-31T19:11:38;13.00;95.00
70820;DHT22;58439;51.046;13.692;2022-10-31T19:14:17;13.00;95.30
70820;DHT22;58439;51.046;13.692;2022-10-31T19:16:45;12.90;95.80
70820;DHT22;58439;51.046;13.692;2022-10-31T19:19:19;12.90;95.90
70820;DHT22;58439;51.046;13.692;2022-10-31T19:21:49;12.80;96.30
70820;DHT22;58439;51.046;13.692;2022-10-31T19:24:19;12.80;96.70
70820;DHT22;58439;51.046;13.692;2022-10-31T19:26:49;12.70;97.40
70820;DHT22;58439;51.046;13.692;2022-10-31T19:33:44;12.70;97.10
70820;DHT22;58439;51.046;13.692;2022-10-31T19:36:16;12.70;97.00
70820;DHT22;58439;51.046;13.692;2022-10-31T19:39:10;12.70;97.40
70820;DHT22;58439;51.046;13.692;2022-10-31T19:41:58;12.60;97.30
70820;DHT22;58439;51.046;13.692;2022-10-31T19:46:03;12.60;97.40
70820;DHT22;58439;51.046;13.692;2022-10-31T19:48:58;12.60;97.30
70820;DHT22;58439;51.046;13.692;2022-10-31T19:51:33;12.70;97.40
70820;DHT22;58439;51.046;13.692;2022-10-31T19:54:42;12.60;97.10
70820;DHT22;58439;51.046;13.692;2022-10-31T19:57:13;12.60;97.20
70820;DHT22;58439;51.046;13.692;2022-10-31T19:59:44;12.60;97.30
70820;DHT22;58439;51.046;13.692;2022-10-31T20:02:15;12.50;97.60
70820;DHT22;58439;51.046;13.692;2022-10-31T20:04:49;12.50;98.30
70820;DHT22;58439;51.046;13.692;2022-10-31T20:07:17;12.50;98.40
70820;DHT22;58439;51.046;13.692;2022-10-31T20:09:45;12.60;98.40
70820;DHT22;58439;51.046;13.692;2022-10-31T20:12:12;12.70;98.50
70820;DHT22;58439;51.046;13.692;2022-10-31T20:14:40;12.70;98.20
70820;DHT22;58439;51.046;13.692;2022-10-31T20:17:16;12.70;97.80
70820;DHT22;58439;51.046;13.692;2022-10-31T20:19:44;12.80;98.00
70820;DHT22;58439;51.046;13.692;2022-10-31T20:22:12;12.80;97.90
70820;DHT22;58439;51.046;13.692;2022-10-31T20:24:40;12.90;98.00
70820;DHT22;58439;51.046;13.692;2022-10-31T20:27:07;12.90;97.80
70820;DHT22;58439;51.046;13.692;2022-10-31T20:29:35;13.00;97.50
70820;DHT22;58439;51.046;13.692;2022-10-31T20:32:02;12.90;97.40
70820;DHT22;58439;51.046;13.692;2022-10-31T20:34:29;13.00;97.60
70820;DHT22;58439;51.046;13.692;2022-10-31T20:36:57;13.00;97.60
70820;DHT22;58439;51.046;13.692;2022-10-31T20:39:26;13.00;97.40
70820;DHT22;58439;51.046;13.692;2022-10-31T20:41:54;13.00;97.40
70820;DHT22;58439;51.046;13.692;2022-10-31T20:44:21;13.00;97.30
70820;DHT22;58439;51.046;13.692;2022-10-31T20:46:48;13.00;97.30
70820;DHT22;58439;51.046;13.692;2022-10-31T20:49:15;13.00;97.50
70820;DHT22;58439;51.046;13.692;2022-10-31T20:51:43;13.00;97.60
70820;DHT22;58439;51.046;13.692;2022-10-31T20:54:12;13.00;97.60
70820;DHT22;58439;51.046;13.692;2022-10-31T20:56:39;13.10;97.60
70820;DHT22;58439;51.046;13.692;2022-10-31T20:59:07;13.10;97.80
70820;DHT22;58439;51.046;13.692;2022-10-31T21:01:34;13.20;97.70
70820;DHT22;58439;51.046;13.692;2022-10-31T21:04:04;13.30;97.30
70820;DHT22;58439;51.046;13.692;2022-10-31T21:06:32;13.30;97.20
70820;DHT22;58439;51.046;13.692;2022-10-31T21:08:59;13.30;97.20
70820;DHT22;58439;51.046;13.692;2022-10-31T21:11:27;13.40;97.00
70820;DHT22;58439;51.046;13.692;2022-10-31T21:13:54;13.40;96.80
70820;DHT22;58439;51.046;13.692;2022-10-31T21:16:24;13.40;96.70
70820;DHT22;58439;51.046;13.692;2022-10-31T21:18:53;13.40;96.60
70820;DHT22;58439;51.046;13.692;2022-10-31T21:21:23;13.40;96.60
70820;DHT22;58439;51.046;13.692;2022-10-31T21:24:02;13.30;96.60